Terminal Aerodrome Forecast
Issued by NWS

Home | Current Version | Previous Version | Text Only | Print | Product List | Glossary On
Versions: 1 2 3 4 5 6 7 8 9 10 11 12 13
401
FTUS41 KCAR 270520
TAFHUL
TAF
KHUL 270520Z 2706/2806 21005KT P6SM BKN200
     FM271000 VRB03KT 6SM -RA OVC030
     FM271600 04006KT P6SM VCSH OVC015
     FM272000 06006KT 5SM BR VCSH OVC008=

USA.gov is the U.S. government's official web portal to all federal, state and local government web resources and services.